createdAt,value
2022-07-31T00:02:10.376Z,-80
2022-07-31T00:04:40.529Z,-80
2022-07-31T00:07:08.978Z,-80
2022-07-31T00:09:53.866Z,-80
2022-07-31T00:12:24.036Z,-79
2022-07-31T00:14:52.519Z,-80
2022-07-31T00:17:21.326Z,-80
2022-07-31T00:19:51.185Z,-81
2022-07-31T00:22:19.721Z,-80
2022-07-31T00:24:48.162Z,-80
2022-07-31T00:27:16.572Z,-80
2022-07-31T00:29:45.024Z,-81
2022-07-31T00:32:13.518Z,-80
2022-07-31T00:34:42.456Z,-81
2022-07-31T00:37:12.319Z,-81
2022-07-31T00:39:40.907Z,-81
2022-07-31T00:42:18.705Z,-80
2022-07-31T00:44:51.127Z,-80
2022-07-31T00:47:22.299Z,-81
2022-07-31T00:49:54.746Z,-80
2022-07-31T00:52:25.301Z,-81
2022-07-31T00:54:53.834Z,-81
2022-07-31T00:57:22.665Z,-80
2022-07-31T00:59:51.693Z,-80
2022-07-31T01:02:20.066Z,-80
2022-07-31T01:04:48.581Z,-80
2022-07-31T01:07:17.082Z,-80
2022-07-31T01:09:50.198Z,-79
2022-07-31T01:12:30.772Z,-80
2022-07-31T01:15:06.293Z,-80
2022-07-31T01:17:38.240Z,-80
2022-07-31T01:20:08.908Z,-80
2022-07-31T01:22:57.538Z,-80
2022-07-31T01:25:46.356Z,-80
2022-07-31T01:28:34.132Z,-80
2022-07-31T01:31:26.048Z,-80
2022-07-31T01:34:03.855Z,-80
2022-07-31T01:36:35.852Z,-80
2022-07-31T01:39:05.119Z,-80
2022-07-31T01:41:42.431Z,-80
2022-07-31T01:44:14.595Z,-80
2022-07-31T01:46:47.510Z,-81
2022-07-31T01:49:19.073Z,-80
2022-07-31T01:51:49.746Z,-80
2022-07-31T01:54:23.094Z,-80
2022-07-31T01:56:52.227Z,-80
2022-07-31T01:59:24.556Z,-79
2022-07-31T02:01:55.836Z,-80
2022-07-31T02:04:25.528Z,-80
2022-07-31T02:06:55.252Z,-80
2022-07-31T02:09:26.296Z,-81
2022-07-31T02:11:57.079Z,-80
2022-07-31T02:14:28.093Z,-80
2022-07-31T02:16:59.564Z,-81
2022-07-31T02:19:31.171Z,-80
2022-07-31T02:22:01.108Z,-81
2022-07-31T02:24:29.918Z,-82
2022-07-31T02:26:59.981Z,-81
2022-07-31T02:29:33.657Z,-81
2022-07-31T02:32:05.713Z,-81
2022-07-31T02:34:37.398Z,-81
2022-07-31T02:37:07.284Z,-82
2022-07-31T02:39:39.089Z,-81
2022-07-31T02:42:08.846Z,-81
2022-07-31T02:44:39.889Z,-82
2022-07-31T02:47:10.386Z,-81
2022-07-31T02:49:39.898Z,-79
2022-07-31T02:52:10.086Z,-79
2022-07-31T02:54:40.805Z,-80
2022-07-31T02:57:10.403Z,-81
2022-07-31T02:59:40.821Z,-80
2022-07-31T03:02:11.225Z,-81
2022-07-31T03:04:40.323Z,-80
2022-07-31T03:07:09.990Z,-80
2022-07-31T03:09:38.724Z,-79
2022-07-31T03:12:08.839Z,-80
2022-07-31T03:14:38.152Z,-81
2022-07-31T03:17:09.894Z,-81
2022-07-31T03:19:40.370Z,-81
2022-07-31T03:22:13.649Z,-81
2022-07-31T03:24:45.766Z,-80
2022-07-31T03:27:15.420Z,-80
2022-07-31T03:29:44.038Z,-80
2022-07-31T03:32:12.633Z,-80
2022-07-31T03:34:43.133Z,-80
2022-07-31T03:37:11.569Z,-81
2022-07-31T03:39:40.257Z,-80
2022-07-31T03:42:12.983Z,-81
2022-07-31T03:44:48.819Z,-81
2022-07-31T03:47:17.577Z,-81
2022-07-31T03:49:48.622Z,-80
2022-07-31T03:52:17.603Z,-80
2022-07-31T03:54:46.207Z,-80
2022-07-31T03:57:15.659Z,-81
2022-07-31T03:59:48.840Z,-80
2022-07-31T04:02:18.891Z,-80
2022-07-31T04:04:48.999Z,-81
2022-07-31T04:07:17.864Z,-80
2022-07-31T04:09:46.365Z,-80
2022-07-31T04:12:14.792Z,-80
2022-07-31T04:14:43.348Z,-80
2022-07-31T04:17:11.802Z,-80
2022-07-31T04:19:40.446Z,-81
2022-07-31T04:22:10.304Z,-80
2022-07-31T04:24:38.810Z,-81
2022-07-31T04:27:12.587Z,-81
2022-07-31T04:29:41.394Z,-80
2022-07-31T04:32:09.829Z,-80
2022-07-31T04:34:38.808Z,-81
2022-07-31T04:37:07.411Z,-80
2022-07-31T04:39:37.538Z,-81
2022-07-31T04:42:11.253Z,-80
2022-07-31T04:44:40.209Z,-81
2022-07-31T04:47:09.513Z,-80
2022-07-31T04:49:38.131Z,-81
2022-07-31T04:52:07.782Z,-81
2022-07-31T04:54:39.500Z,-80
2022-07-31T04:57:07.926Z,-80
2022-07-31T04:59:58.094Z,-81
2022-07-31T05:02:24.935Z,-81
2022-07-31T05:04:56.652Z,-80
2022-07-31T05:07:28.629Z,-80
2022-07-31T05:09:59.576Z,-80
2022-07-31T05:12:28.342Z,-80
2022-07-31T05:14:56.836Z,-81
2022-07-31T05:17:25.238Z,-81
2022-07-31T05:19:53.824Z,-81
2022-07-31T05:22:22.225Z,-81
2022-07-31T05:24:50.677Z,-81
2022-07-31T05:27:20.511Z,-80
2022-07-31T05:29:48.982Z,-80
2022-07-31T05:32:18.049Z,-80
2022-07-31T05:34:46.720Z,-81
2022-07-31T05:37:15.158Z,-81
2022-07-31T05:39:43.609Z,-81
2022-07-31T05:42:12.152Z,-80
2022-07-31T05:44:42.156Z,-81
2022-07-31T05:47:10.634Z,-80
2022-07-31T05:49:39.113Z,-81
2022-07-31T05:52:07.580Z,-81
2022-07-31T05:54:36.204Z,-81
2022-07-31T05:57:04.922Z,-81
2022-07-31T05:59:34.848Z,-81
2022-07-31T06:02:05.192Z,-79
2022-07-31T06:04:33.944Z,-79
2022-07-31T06:07:02.361Z,-82
2022-07-31T06:09:31.746Z,-80
2022-07-31T06:12:00.359Z,-80
2022-07-31T06:14:29.320Z,-80
2022-07-31T06:16:57.791Z,-79
2022-07-31T06:19:27.715Z,-80
2022-07-31T06:21:56.102Z,-80
2022-07-31T06:24:25.978Z,-80
2022-07-31T06:26:58.881Z,-80
2022-07-31T06:29:40.336Z,-80
2022-07-31T06:32:10.532Z,-80
2022-07-31T06:34:41.473Z,-80
2022-07-31T06:37:10.148Z,-80
2022-07-31T06:39:55.870Z,-80
2022-07-31T06:42:27.103Z,-79
2022-07-31T06:44:56.020Z,-79
2022-07-31T06:47:27.057Z,-80
2022-07-31T06:49:57.653Z,-79
2022-07-31T06:52:26.129Z,-80
2022-07-31T06:54:54.546Z,-80
2022-07-31T06:57:23.118Z,-79
2022-07-31T06:59:51.607Z,-79
2022-07-31T07:02:20.011Z,-79
2022-07-31T07:05:05.241Z,-79
2022-07-31T07:07:38.424Z,-79
2022-07-31T07:10:08.059Z,-82
2022-07-31T07:12:36.549Z,-82
2022-07-31T07:15:06.064Z,-82
2022-07-31T07:17:34.615Z,-82
2022-07-31T07:20:03.178Z,-82
2022-07-31T07:22:32.693Z,-80
2022-07-31T07:25:02.870Z,-82
2022-07-31T07:27:31.329Z,-82
2022-07-31T07:30:01.022Z,-82
2022-07-31T07:32:29.439Z,-82
2022-07-31T07:35:00.026Z,-80
2022-07-31T07:37:30.143Z,-80
2022-07-31T07:40:02.592Z,-80
2022-07-31T07:42:34.079Z,-80
2022-07-31T07:45:07.878Z,-80
2022-07-31T07:47:54.137Z,-79
2022-07-31T07:50:26.780Z,-79
2022-07-31T07:52:58.224Z,-79
2022-07-31T07:55:27.456Z,-80
2022-07-31T07:58:11.750Z,-80
2022-07-31T08:00:40.909Z,-80
2022-07-31T08:03:48.719Z,-80
2022-07-31T08:05:58.436Z,-80
2022-07-31T08:08:26.865Z,-80
2022-07-31T08:10:55.284Z,-79
2022-07-31T08:13:25.097Z,-78
2022-07-31T08:15:53.518Z,-79
2022-07-31T08:18:21.916Z,-79
2022-07-31T08:20:55.879Z,-79
2022-07-31T08:23:24.317Z,-79
2022-07-31T08:25:53.437Z,-80
2022-07-31T08:28:27.495Z,-79
2022-07-31T08:30:55.962Z,-79
2022-07-31T08:33:24.387Z,-80
2022-07-31T08:35:52.866Z,-81
2022-07-31T08:38:21.446Z,-81
2022-07-31T08:40:50.178Z,-81
2022-07-31T08:44:00.618Z,-80
2022-07-31T08:46:13.261Z,-81
2022-07-31T08:48:43.247Z,-81
2022-07-31T08:51:13.984Z,-81
2022-07-31T08:53:45.442Z,-81
2022-07-31T08:56:14.628Z,-81
2022-07-31T08:58:43.049Z,-81
2022-07-31T09:01:15.007Z,-81
2022-07-31T09:03:43.678Z,-81
2022-07-31T09:06:12.590Z,-81
2022-07-31T09:08:41.146Z,-81
2022-07-31T09:11:12.655Z,-81
2022-07-31T09:13:41.783Z,-80
2022-07-31T09:16:30.604Z,-80
2022-07-31T09:19:01.381Z,-81
2022-07-31T09:21:41.087Z,-81
2022-07-31T09:24:10.420Z,-81
2022-07-31T09:26:40.977Z,-81
2022-07-31T09:29:12.620Z,-82
2022-07-31T09:31:43.122Z,-80
2022-07-31T09:34:11.632Z,-82
2022-07-31T09:36:40.518Z,-82
2022-07-31T09:39:26.807Z,-82
2022-07-31T09:42:01.776Z,-81
2022-07-31T09:44:47.218Z,-81
2022-07-31T09:47:26.975Z,-82
2022-07-31T09:49:58.532Z,-80
2022-07-31T09:52:29.204Z,-81
2022-07-31T09:55:15.955Z,-81
2022-07-31T09:57:55.140Z,-80
2022-07-31T10:00:24.712Z,-81
2022-07-31T10:02:56.724Z,-81
2022-07-31T10:05:28.362Z,-80
2022-07-31T10:08:00.580Z,-84
2022-07-31T10:10:31.897Z,-80
2022-07-31T10:13:09.291Z,-81
2022-07-31T10:15:40.881Z,-81
2022-07-31T10:18:11.484Z,-81
2022-07-31T10:20:44.012Z,-80
2022-07-31T10:23:17.921Z,-82
2022-07-31T10:25:53.829Z,-81
2022-07-31T10:28:24.075Z,-84
2022-07-31T10:30:53.104Z,-80
2022-07-31T10:33:43.157Z,-80
2022-07-31T10:36:19.566Z,-80
2022-07-31T10:38:59.738Z,-80
2022-07-31T10:41:43.255Z,-80
2022-07-31T10:44:17.977Z,-81
2022-07-31T10:46:46.475Z,-82
2022-07-31T10:49:16.465Z,-82
2022-07-31T10:51:48.814Z,-81
2022-07-31T10:54:17.479Z,-81
2022-07-31T10:56:48.602Z,-82
2022-07-31T10:59:17.205Z,-82
2022-07-31T11:01:52.614Z,-82
2022-07-31T11:04:32.006Z,-82
2022-07-31T11:07:01.239Z,-81
2022-07-31T11:09:31.302Z,-81
2022-07-31T11:11:59.733Z,-81
2022-07-31T11:14:36.197Z,-80
2022-07-31T11:17:05.250Z,-81
2022-07-31T11:19:43.073Z,-81
2022-07-31T11:22:31.807Z,-81
2022-07-31T11:25:01.779Z,-81
2022-07-31T11:27:33.876Z,-81
2022-07-31T11:30:12.818Z,-81
2022-07-31T11:32:42.581Z,-80
2022-07-31T11:35:12.392Z,-81
2022-07-31T11:37:56.610Z,-81
2022-07-31T11:40:27.792Z,-82
2022-07-31T11:43:25.380Z,-82
2022-07-31T11:45:51.375Z,-82
2022-07-31T11:48:22.241Z,-81
2022-07-31T11:50:52.457Z,-81
2022-07-31T11:53:21.653Z,-81
2022-07-31T11:55:53.055Z,-82
2022-07-31T11:58:24.742Z,-82
2022-07-31T12:00:55.486Z,-82
2022-07-31T12:03:26.644Z,-81
2022-07-31T12:05:56.472Z,-82
2022-07-31T12:08:27.112Z,-80
2022-07-31T12:10:57.169Z,-80
2022-07-31T12:13:27.103Z,-80
2022-07-31T12:16:01.093Z,-79
2022-07-31T12:18:34.607Z,-81
2022-07-31T12:21:06.532Z,-82
2022-07-31T12:23:43.077Z,-81
2022-07-31T12:26:24.097Z,-83
2022-07-31T12:29:01.211Z,-82
2022-07-31T12:31:31.607Z,-81
2022-07-31T12:34:00.167Z,-83
2022-07-31T12:36:30.029Z,-82
2022-07-31T12:39:03.425Z,-83
2022-07-31T12:41:41.906Z,-86
2022-07-31T12:44:14.821Z,-82
2022-07-31T12:46:47.412Z,-85
2022-07-31T12:49:16.699Z,-83
2022-07-31T12:51:47.238Z,-83
2022-07-31T12:54:17.491Z,-85
2022-07-31T12:56:47.662Z,-84
2022-07-31T12:59:16.232Z,-84
2022-07-31T13:01:44.755Z,-84
2022-07-31T13:04:18.550Z,-80
2022-07-31T13:06:51.668Z,-84
2022-07-31T13:09:21.149Z,-84
2022-07-31T13:11:53.360Z,-83
2022-07-31T13:14:26.495Z,-83
2022-07-31T13:16:57.415Z,-84
2022-07-31T13:19:25.885Z,-84
2022-07-31T13:21:56.974Z,-83
2022-07-31T13:24:26.033Z,-83
2022-07-31T13:26:54.535Z,-83
2022-07-31T13:29:23.842Z,-85
2022-07-31T13:31:52.986Z,-85
2022-07-31T13:34:21.425Z,-87
2022-07-31T13:36:49.875Z,-84
2022-07-31T13:39:19.772Z,-84
2022-07-31T13:41:48.286Z,-84
2022-07-31T13:44:17.088Z,-85
2022-07-31T13:46:46.687Z,-86
2022-07-31T13:49:15.731Z,-87
2022-07-31T13:51:44.456Z,-86
2022-07-31T13:54:13.608Z,-86
2022-07-31T13:56:43.841Z,-86
2022-07-31T13:59:14.158Z,-87
2022-07-31T14:02:02.914Z,-88
2022-07-31T14:04:38.400Z,-85
2022-07-31T14:07:09.262Z,-81
2022-07-31T14:09:37.973Z,-81
2022-07-31T14:12:09.638Z,-82
2022-07-31T14:14:40.098Z,-81
2022-07-31T14:17:08.566Z,-81
2022-07-31T14:19:44.262Z,-81
2022-07-31T14:22:14.463Z,-81
2022-07-31T14:24:49.943Z,-82
2022-07-31T14:27:21.936Z,-81
2022-07-31T14:29:50.474Z,-81
2022-07-31T14:32:19.696Z,-81
2022-07-31T14:34:48.709Z,-83
2022-07-31T14:37:17.328Z,-83
2022-07-31T14:39:45.795Z,-84
2022-07-31T14:42:14.382Z,-82
2022-07-31T14:44:44.374Z,-82
2022-07-31T14:47:13.950Z,-82
2022-07-31T14:50:07.986Z,-81
2022-07-31T14:52:32.437Z,-83
2022-07-31T14:55:01.962Z,-80
2022-07-31T14:57:31.558Z,-82
2022-07-31T15:00:01.671Z,-83
2022-07-31T15:02:30.171Z,-85
2022-07-31T15:04:58.605Z,-83
2022-07-31T15:07:48.142Z,-82
2022-07-31T15:10:16.997Z,-81
2022-07-31T15:12:45.525Z,-82
2022-07-31T15:15:15.405Z,-81
2022-07-31T15:17:44.072Z,-81
2022-07-31T15:20:13.988Z,-83
2022-07-31T15:22:42.469Z,-82
2022-07-31T15:25:11.677Z,-83
2022-07-31T15:27:40.129Z,-83
2022-07-31T15:30:10.063Z,-83
2022-07-31T15:32:43.406Z,-82
2022-07-31T15:35:14.789Z,-83
2022-07-31T15:37:45.361Z,-83
2022-07-31T15:40:16.991Z,-83
2022-07-31T15:42:47.646Z,-82
2022-07-31T15:45:18.430Z,-83
2022-07-31T15:47:49.659Z,-82
2022-07-31T15:50:20.665Z,-83
2022-07-31T15:52:50.175Z,-81
2022-07-31T15:55:19.375Z,-82
2022-07-31T15:57:47.880Z,-82
2022-07-31T16:00:17.365Z,-82
2022-07-31T16:02:47.355Z,-83
2022-07-31T16:05:21.416Z,-82
2022-07-31T16:08:28.663Z,-82
2022-07-31T16:10:39.586Z,-81
2022-07-31T16:13:08.846Z,-81
2022-07-31T16:15:37.432Z,-82
2022-07-31T16:18:09.163Z,-82
2022-07-31T16:20:46.655Z,-82
2022-07-31T16:23:15.089Z,-81
2022-07-31T16:25:43.898Z,-82
2022-07-31T16:28:12.357Z,-81
2022-07-31T16:30:42.343Z,-82
2022-07-31T16:33:12.434Z,-82
2022-07-31T16:35:40.982Z,-82
2022-07-31T16:38:09.485Z,-82
2022-07-31T16:40:38.005Z,-82
2022-07-31T16:43:50.610Z,-81
2022-07-31T16:45:56.766Z,-82
2022-07-31T16:48:27.225Z,-83
2022-07-31T16:50:55.673Z,-82
2022-07-31T16:54:11.076Z,-83
2022-07-31T16:56:13.833Z,-84
2022-07-31T16:58:43.848Z,-82
2022-07-31T17:01:57.078Z,-83
2022-07-31T17:04:04.444Z,-82
2022-07-31T17:06:36.200Z,-80
2022-07-31T17:09:16.048Z,-83
2022-07-31T17:11:48.697Z,-82
2022-07-31T17:14:18.635Z,-82
2022-07-31T17:16:49.529Z,-82
2022-07-31T17:19:41.812Z,-81
2022-07-31T17:22:11.755Z,-85
2022-07-31T17:24:50.492Z,-83
2022-07-31T17:27:20.822Z,-84
2022-07-31T17:29:49.691Z,-86
2022-07-31T17:32:18.356Z,-80
2022-07-31T17:34:49.545Z,-79
2022-07-31T17:37:18.253Z,-79
2022-07-31T17:39:46.982Z,-79
2022-07-31T17:42:15.522Z,-79
2022-07-31T17:44:49.808Z,-79
2022-07-31T17:47:25.825Z,-79
2022-07-31T17:49:55.746Z,-79
2022-07-31T17:52:24.409Z,-79
2022-07-31T17:54:53.688Z,-79
2022-07-31T17:57:23.751Z,-79
2022-07-31T17:59:53.461Z,-80
2022-07-31T18:02:21.971Z,-80
2022-07-31T18:04:50.435Z,-80
2022-07-31T18:07:21.983Z,-78
2022-07-31T18:09:50.434Z,-78
2022-07-31T18:12:18.989Z,-78
2022-07-31T18:14:47.810Z,-79
2022-07-31T18:17:16.219Z,-80
2022-07-31T18:19:44.662Z,-80
2022-07-31T18:22:13.126Z,-79
2022-07-31T18:24:42.938Z,-79
2022-07-31T18:27:11.352Z,-79
2022-07-31T18:29:39.828Z,-80
2022-07-31T18:32:09.287Z,-80
2022-07-31T18:34:37.722Z,-80
2022-07-31T18:37:06.162Z,-80
2022-07-31T18:39:34.571Z,-80
2022-07-31T18:42:18.771Z,-79
2022-07-31T18:44:47.530Z,-78
2022-07-31T18:47:15.954Z,-78
2022-07-31T18:50:59.711Z,-78
2022-07-31T18:52:32.775Z,-78
2022-07-31T18:55:01.175Z,-78
2022-07-31T18:57:31.093Z,-79
2022-07-31T18:59:59.518Z,-78
2022-07-31T19:02:28.489Z,-78
2022-07-31T19:04:57.125Z,-80
2022-07-31T19:07:25.754Z,-78
2022-07-31T19:09:54.191Z,-78
2022-07-31T19:12:23.221Z,-82
2022-07-31T19:14:53.935Z,-81
2022-07-31T19:17:22.574Z,-82
2022-07-31T19:19:55.034Z,-79
2022-07-31T19:22:29.985Z,-78
2022-07-31T19:24:58.373Z,-77
2022-07-31T19:27:48.072Z,-79
2022-07-31T19:30:17.249Z,-78
2022-07-31T19:32:45.658Z,-78
2022-07-31T19:35:14.106Z,-79
2022-07-31T19:37:42.621Z,-82
2022-07-31T19:40:12.509Z,-81
2022-07-31T19:42:40.937Z,-82
2022-07-31T19:45:10.230Z,-82
2022-07-31T19:47:41.148Z,-83
2022-07-31T19:50:11.543Z,-82
2022-07-31T19:52:40.392Z,-83
2022-07-31T19:55:15.190Z,-81
2022-07-31T19:57:44.425Z,-84
2022-07-31T20:00:14.513Z,-80
2022-07-31T20:02:44.508Z,-80
2022-07-31T20:05:13.509Z,-81
2022-07-31T20:07:41.996Z,-79
2022-07-31T20:10:11.617Z,-80
2022-07-31T20:12:40.873Z,-80
2022-07-31T20:15:11.499Z,-80
2022-07-31T20:17:40.241Z,-79
2022-07-31T20:20:16.074Z,-82
2022-07-31T20:22:44.820Z,-80
2022-07-31T20:25:19.865Z,-81
2022-07-31T20:27:50.097Z,-79
2022-07-31T20:30:22.078Z,-81
2022-07-31T20:32:51.566Z,-79
2022-07-31T20:35:31.218Z,-79
2022-07-31T20:38:15.615Z,-79
2022-07-31T20:40:53.045Z,-80
2022-07-31T20:43:25.072Z,-80
2022-07-31T20:45:57.240Z,-80
2022-07-31T20:48:31.598Z,-81
2022-07-31T20:51:04.193Z,-81
2022-07-31T20:53:33.729Z,-81
2022-07-31T20:56:02.189Z,-80
2022-07-31T20:58:31.032Z,-81
2022-07-31T21:00:59.609Z,-80
2022-07-31T21:03:28.936Z,-81
2022-07-31T21:05:58.103Z,-80
2022-07-31T21:08:28.050Z,-80
2022-07-31T21:10:56.945Z,-80
2022-07-31T21:13:29.563Z,-80
2022-07-31T21:15:58.438Z,-81
2022-07-31T21:18:28.701Z,-83
2022-07-31T21:20:59.062Z,-80
2022-07-31T21:23:29.325Z,-80
2022-07-31T21:25:59.905Z,-80
2022-07-31T21:28:29.632Z,-79
2022-07-31T21:30:58.776Z,-80
2022-07-31T21:33:28.801Z,-80
2022-07-31T21:35:57.774Z,-79
2022-07-31T21:38:26.538Z,-80
2022-07-31T21:40:56.996Z,-80
2022-07-31T21:43:30.411Z,-80
2022-07-31T21:46:06.906Z,-80
2022-07-31T21:48:38.211Z,-80
2022-07-31T21:51:10.029Z,-80
2022-07-31T21:53:38.469Z,-79
2022-07-31T21:56:12.030Z,-79
2022-07-31T21:58:40.706Z,-80
2022-07-31T22:01:09.212Z,-80
2022-07-31T22:03:37.826Z,-80
2022-07-31T22:06:26.320Z,-80
2022-07-31T22:08:54.969Z,-79
2022-07-31T22:11:25.495Z,-80
2022-07-31T22:13:53.914Z,-79
2022-07-31T22:16:22.499Z,-80
2022-07-31T22:18:52.521Z,-79
2022-07-31T22:21:21.350Z,-79
2022-07-31T22:23:50.460Z,-80
2022-07-31T22:26:19.426Z,-80
2022-07-31T22:28:49.913Z,-79
2022-07-31T22:31:18.907Z,-80
2022-07-31T22:33:47.568Z,-80
2022-07-31T22:36:16.398Z,-79
2022-07-31T22:38:46.094Z,-80
2022-07-31T22:41:15.183Z,-80
2022-07-31T22:44:13.465Z,-80
2022-07-31T22:46:34.283Z,-80
2022-07-31T22:49:05.964Z,-80
2022-07-31T22:51:38.415Z,-80
2022-07-31T22:54:07.375Z,-81
2022-07-31T22:56:35.791Z,-81
2022-07-31T22:59:04.604Z,-81
2022-07-31T23:01:34.601Z,-80
2022-07-31T23:04:03.116Z,-81
2022-07-31T23:06:32.800Z,-81
2022-07-31T23:09:02.809Z,-82
2022-07-31T23:11:31.420Z,-81
2022-07-31T23:13:59.870Z,-81
2022-07-31T23:16:28.902Z,-81
2022-07-31T23:18:58.999Z,-81
2022-07-31T23:21:27.647Z,-81
2022-07-31T23:23:56.122Z,-81
2022-07-31T23:26:26.755Z,-81
2022-07-31T23:28:56.695Z,-81
2022-07-31T23:31:26.031Z,-81
2022-07-31T23:33:54.770Z,-81
2022-07-31T23:36:25.176Z,-81
2022-07-31T23:38:54.173Z,-80
2022-07-31T23:41:36.655Z,-80
2022-07-31T23:44:05.834Z,-80
2022-07-31T23:46:40.860Z,-81
2022-07-31T23:49:10.269Z,-81
2022-07-31T23:51:40.153Z,-81
2022-07-31T23:54:08.843Z,-81
2022-07-31T23:56:37.418Z,-81
2022-07-31T23:59:05.835Z,-81
